sensor_id;sensor_type;location;lat;lon;timestamp;temperature;humidity
80577;DHT22;69937;52.420;10.538;2023-06-14T00:03:49;15.80;54.40
80577;DHT22;69937;52.420;10.538;2023-06-14T00:08:50;15.70;54.60
80577;DHT22;69937;52.420;10.538;2023-06-14T00:13:51;15.60;54.60
80577;DHT22;69937;52.420;10.538;2023-06-14T00:18:52;15.60;54.70
80577;DHT22;69937;52.420;10.538;2023-06-14T00:23:52;15.60;54.80
80577;DHT22;69937;52.420;10.538;2023-06-14T00:28:54;15.50;54.90
80577;DHT22;69937;52.420;10.538;2023-06-14T00:33:55;15.40;55.20
80577;DHT22;69937;52.420;10.538;2023-06-14T00:38:55;15.40;55.10
80577;DHT22;69937;52.420;10.538;2023-06-14T00:43:56;15.30;55.30
80577;DHT22;69937;52.420;10.538;2023-06-14T00:48:58;15.30;55.20
80577;DHT22;69937;52.420;10.538;2023-06-14T00:54:00;15.30;55.30
80577;DHT22;69937;52.420;10.538;2023-06-14T00:59:02;15.20;55.50
80577;DHT22;69937;52.420;10.538;2023-06-14T01:04:03;15.10;55.50
80577;DHT22;69937;52.420;10.538;2023-06-14T01:09:25;15.00;55.80
80577;DHT22;69937;52.420;10.538;2023-06-14T01:14:27;15.00;55.90
80577;DHT22;69937;52.420;10.538;2023-06-14T01:19:29;15.00;56.00
80577;DHT22;69937;52.420;10.538;2023-06-14T01:24:32;14.80;56.30
80577;DHT22;69937;52.420;10.538;2023-06-14T01:29:34;14.70;56.60
80577;DHT22;69937;52.420;10.538;2023-06-14T01:34:36;14.70;56.70
80577;DHT22;69937;52.420;10.538;2023-06-14T01:39:37;14.50;57.10
80577;DHT22;69937;52.420;10.538;2023-06-14T01:44:38;14.40;57.20
80577;DHT22;69937;52.420;10.538;2023-06-14T01:49:39;14.30;57.60
80577;DHT22;69937;52.420;10.538;2023-06-14T01:54:40;14.10;58.00
80577;DHT22;69937;52.420;10.538;2023-06-14T01:59:42;14.00;58.40
80577;DHT22;69937;52.420;10.538;2023-06-14T02:04:42;13.90;58.60
80577;DHT22;69937;52.420;10.538;2023-06-14T02:09:43;13.90;58.70
80577;DHT22;69937;52.420;10.538;2023-06-14T02:14:44;13.90;58.70
80577;DHT22;69937;52.420;10.538;2023-06-14T02:19:45;13.60;59.10
80577;DHT22;69937;52.420;10.538;2023-06-14T02:24:45;13.60;59.30
80577;DHT22;69937;52.420;10.538;2023-06-14T02:29:47;13.50;59.70
80577;DHT22;69937;52.420;10.538;2023-06-14T02:34:47;13.50;59.70
80577;DHT22;69937;52.420;10.538;2023-06-14T02:39:50;13.30;60.20
80577;DHT22;69937;52.420;10.538;2023-06-14T02:44:50;13.30;60.60
80577;DHT22;69937;52.420;10.538;2023-06-14T02:49:52;13.10;60.40
80577;DHT22;69937;52.420;10.538;2023-06-14T02:54:52;13.20;60.60
80577;DHT22;69937;52.420;10.538;2023-06-14T02:59:54;13.10;60.70
80577;DHT22;69937;52.420;10.538;2023-06-14T03:04:55;13.00;61.00
80577;DHT22;69937;52.420;10.538;2023-06-14T03:09:56;13.00;61.00
80577;DHT22;69937;52.420;10.538;2023-06-14T03:14:56;12.90;61.30
80577;DHT22;69937;52.420;10.538;2023-06-14T03:19:57;12.90;61.40
80577;DHT22;69937;52.420;10.538;2023-06-14T03:24:58;12.80;61.60
80577;DHT22;69937;52.420;10.538;2023-06-14T03:29:59;12.80;62.00
80577;DHT22;69937;52.420;10.538;2023-06-14T03:35:01;12.70;62.20
80577;DHT22;69937;52.420;10.538;2023-06-14T03:40:01;12.70;62.40
80577;DHT22;69937;52.420;10.538;2023-06-14T03:45:06;12.70;62.50
80577;DHT22;69937;52.420;10.538;2023-06-14T03:50:07;12.60;62.90
80577;DHT22;69937;52.420;10.538;2023-06-14T03:55:08;12.70;62.70
80577;DHT22;69937;52.420;10.538;2023-06-14T04:00:10;12.80;62.90
80577;DHT22;69937;52.420;10.538;2023-06-14T04:05:12;12.80;62.90
80577;DHT22;69937;52.420;10.538;2023-06-14T04:10:13;12.70;63.00
80577;DHT22;69937;52.420;10.538;2023-06-14T04:15:14;12.80;63.10
80577;DHT22;69937;52.420;10.538;2023-06-14T04:20:15;12.90;63.40
80577;DHT22;69937;52.420;10.538;2023-06-14T04:25:17;13.00;63.40
80577;DHT22;69937;52.420;10.538;2023-06-14T04:30:18;13.10;63.00
80577;DHT22;69937;52.420;10.538;2023-06-14T04:35:18;13.10;63.00
80577;DHT22;69937;52.420;10.538;2023-06-14T04:40:20;13.30;63.10
80577;DHT22;69937;52.420;10.538;2023-06-14T04:45:21;13.40;63.30
80577;DHT22;69937;52.420;10.538;2023-06-14T04:50:23;13.50;62.60
80577;DHT22;69937;52.420;10.538;2023-06-14T04:55:24;13.60;62.70
80577;DHT22;69937;52.420;10.538;2023-06-14T05:00:25;13.80;62.60
80577;DHT22;69937;52.420;10.538;2023-06-14T05:05:25;13.90;62.20
80577;DHT22;69937;52.420;10.538;2023-06-14T05:10:26;14.10;62.30
80577;DHT22;69937;52.420;10.538;2023-06-14T05:15:26;14.20;61.80
80577;DHT22;69937;52.420;10.538;2023-06-14T05:20:27;14.40;61.90
80577;DHT22;69937;52.420;10.538;2023-06-14T05:25:29;14.50;61.40
80577;DHT22;69937;52.420;10.538;2023-06-14T05:30:29;14.60;61.50
80577;DHT22;69937;52.420;10.538;2023-06-14T05:35:31;14.70;61.70
80577;DHT22;69937;52.420;10.538;2023-06-14T05:40:31;14.90;60.90
80577;DHT22;69937;52.420;10.538;2023-06-14T05:45:32;15.00;61.10
80577;DHT22;69937;52.420;10.538;2023-06-14T05:50:33;15.30;61.00
80577;DHT22;69937;52.420;10.538;2023-06-14T05:55:34;15.50;60.30
80577;DHT22;69937;52.420;10.538;2023-06-14T06:00:35;15.60;59.90
80577;DHT22;69937;52.420;10.538;2023-06-14T06:05:36;15.60;60.20
80577;DHT22;69937;52.420;10.538;2023-06-14T06:10:37;15.80;59.70
80577;DHT22;69937;52.420;10.538;2023-06-14T06:15:38;16.00;60.40
80577;DHT22;69937;52.420;10.538;2023-06-14T06:20:38;16.20;59.30
80577;DHT22;69937;52.420;10.538;2023-06-14T06:25:39;16.40;58.70
80577;DHT22;69937;52.420;10.538;2023-06-14T06:30:40;16.40;58.30
80577;DHT22;69937;52.420;10.538;2023-06-14T06:35:41;16.50;57.90
80577;DHT22;69937;52.420;10.538;2023-06-14T06:40:41;16.60;57.50
80577;DHT22;69937;52.420;10.538;2023-06-14T06:45:42;16.70;57.10
80577;DHT22;69937;52.420;10.538;2023-06-14T06:50:43;16.80;57.50
80577;DHT22;69937;52.420;10.538;2023-06-14T06:55:44;16.90;57.10
80577;DHT22;69937;52.420;10.538;2023-06-14T07:00:44;17.00;56.40
80577;DHT22;69937;52.420;10.538;2023-06-14T07:05:45;17.00;56.80
80577;DHT22;69937;52.420;10.538;2023-06-14T07:10:46;17.20;56.70
80577;DHT22;69937;52.420;10.538;2023-06-14T07:15:46;17.30;56.00
80577;DHT22;69937;52.420;10.538;2023-06-14T07:20:47;17.50;55.50
80577;DHT22;69937;52.420;10.538;2023-06-14T07:25:48;17.50;55.40
80577;DHT22;69937;52.420;10.538;2023-06-14T07:30:51;17.50;56.00
80577;DHT22;69937;52.420;10.538;2023-06-14T07:35:52;17.50;56.00
80577;DHT22;69937;52.420;10.538;2023-06-14T07:40:53;17.80;54.30
80577;DHT22;69937;52.420;10.538;2023-06-14T07:45:53;18.00;54.20
80577;DHT22;69937;52.420;10.538;2023-06-14T07:50:55;18.20;53.30
80577;DHT22;69937;52.420;10.538;2023-06-14T07:55:56;18.30;53.30
80577;DHT22;69937;52.420;10.538;2023-06-14T08:00:57;18.50;52.90
80577;DHT22;69937;52.420;10.538;2023-06-14T08:05:57;18.80;53.30
80577;DHT22;69937;52.420;10.538;2023-06-14T08:10:58;19.00;52.70
80577;DHT22;69937;52.420;10.538;2023-06-14T08:15:59;19.20;51.70
80577;DHT22;69937;52.420;10.538;2023-06-14T08:21:01;19.50;51.70
80577;DHT22;69937;52.420;10.538;2023-06-14T08:26:03;19.50;50.90
80577;DHT22;69937;52.420;10.538;2023-06-14T08:31:04;19.70;51.00
80577;DHT22;69937;52.420;10.538;2023-06-14T08:36:05;20.10;50.20
80577;DHT22;69937;52.420;10.538;2023-06-14T08:41:06;20.20;49.40
80577;DHT22;69937;52.420;10.538;2023-06-14T08:46:06;20.30;49.10
80577;DHT22;69937;52.420;10.538;2023-06-14T08:51:11;20.50;49.70
80577;DHT22;69937;52.420;10.538;2023-06-14T08:56:13;20.90;49.40
80577;DHT22;69937;52.420;10.538;2023-06-14T09:01:15;21.20;47.80
80577;DHT22;69937;52.420;10.538;2023-06-14T09:06:17;21.50;48.40
80577;DHT22;69937;52.420;10.538;2023-06-14T09:11:19;21.70;47.50
80577;DHT22;69937;52.420;10.538;2023-06-14T09:16:20;21.80;47.40
80577;DHT22;69937;52.420;10.538;2023-06-14T09:21:20;21.90;46.50
80577;DHT22;69937;52.420;10.538;2023-06-14T09:26:22;22.10;45.70
80577;DHT22;69937;52.420;10.538;2023-06-14T09:31:23;22.10;45.90
80577;DHT22;69937;52.420;10.538;2023-06-14T09:36:25;22.20;46.10
80577;DHT22;69937;52.420;10.538;2023-06-14T09:41:39;22.60;46.50
80577;DHT22;69937;52.420;10.538;2023-06-14T09:46:40;22.80;46.00
80577;DHT22;69937;52.420;10.538;2023-06-14T09:51:45;23.60;45.60
80577;DHT22;69937;52.420;10.538;2023-06-14T09:56:51;23.90;45.40
80577;DHT22;69937;52.420;10.538;2023-06-14T10:01:56;23.60;45.00
80577;DHT22;69937;52.420;10.538;2023-06-14T10:06:59;23.80;44.60
80577;DHT22;69937;52.420;10.538;2023-06-14T10:12:02;23.70;45.10
80577;DHT22;69937;52.420;10.538;2023-06-14T10:17:10;23.30;46.00
80577;DHT22;69937;52.420;10.538;2023-06-14T10:22:23;23.50;45.70
80577;DHT22;69937;52.420;10.538;2023-06-14T10:27:26;23.80;44.80
80577;DHT22;69937;52.420;10.538;2023-06-14T10:32:27;23.30;45.50
80577;DHT22;69937;52.420;10.538;2023-06-14T10:37:31;23.00;46.40
80577;DHT22;69937;52.420;10.538;2023-06-14T10:42:32;23.20;47.00
80577;DHT22;69937;52.420;10.538;2023-06-14T10:47:34;23.50;46.10
80577;DHT22;69937;52.420;10.538;2023-06-14T10:52:39;23.50;46.30
80577;DHT22;69937;52.420;10.538;2023-06-14T10:57:54;24.00;46.00
80577;DHT22;69937;52.420;10.538;2023-06-14T11:14:24;23.80;45.50
80577;DHT22;69937;52.420;10.538;2023-06-14T11:19:25;23.60;46.30
80577;DHT22;69937;52.420;10.538;2023-06-14T11:24:28;24.00;45.70
80577;DHT22;69937;52.420;10.538;2023-06-14T11:29:29;23.90;45.10
80577;DHT22;69937;52.420;10.538;2023-06-14T11:34:31;23.60;45.90
80577;DHT22;69937;52.420;10.538;2023-06-14T11:39:31;24.00;45.20
80577;DHT22;69937;52.420;10.538;2023-06-14T11:44:32;25.40;43.70
80577;DHT22;69937;52.420;10.538;2023-06-14T11:49:36;25.30;43.30
80577;DHT22;69937;52.420;10.538;2023-06-14T11:54:37;25.00;43.50
80577;DHT22;69937;52.420;10.538;2023-06-14T11:59:38;24.50;43.90
80577;DHT22;69937;52.420;10.538;2023-06-14T12:04:43;25.40;43.40
80577;DHT22;69937;52.420;10.538;2023-06-14T12:14:55;27.50;40.30
80577;DHT22;69937;52.420;10.538;2023-06-14T12:19:56;27.00;40.90
80577;DHT22;69937;52.420;10.538;2023-06-14T12:24:57;26.50;42.00
80577;DHT22;69937;52.420;10.538;2023-06-14T12:30:04;26.70;40.90
80577;DHT22;69937;52.420;10.538;2023-06-14T12:35:08;26.90;41.10
80577;DHT22;69937;52.420;10.538;2023-06-14T12:40:09;26.20;41.80
80577;DHT22;69937;52.420;10.538;2023-06-14T12:45:10;26.50;41.20
80577;DHT22;69937;52.420;10.538;2023-06-14T12:50:10;27.20;40.30
80577;DHT22;69937;52.420;10.538;2023-06-14T12:55:11;27.00;40.80
80577;DHT22;69937;52.420;10.538;2023-06-14T13:00:12;26.50;41.30
80577;DHT22;69937;52.420;10.538;2023-06-14T13:05:13;27.40;40.20
80577;DHT22;69937;52.420;10.538;2023-06-14T13:10:14;27.80;40.30
80577;DHT22;69937;52.420;10.538;2023-06-14T13:15:14;28.30;40.40
80577;DHT22;69937;52.420;10.538;2023-06-14T13:20:15;27.30;40.10
80577;DHT22;69937;52.420;10.538;2023-06-14T13:25:16;26.80;40.60
80577;DHT22;69937;52.420;10.538;2023-06-14T13:30:17;25.90;40.60
80577;DHT22;69937;52.420;10.538;2023-06-14T13:35:19;25.40;41.70
80577;DHT22;69937;52.420;10.538;2023-06-14T13:40:19;25.30;42.10
80577;DHT22;69937;52.420;10.538;2023-06-14T13:45:20;25.20;41.80
80577;DHT22;69937;52.420;10.538;2023-06-14T13:50:21;24.90;41.90
80577;DHT22;69937;52.420;10.538;2023-06-14T13:55:21;24.80;42.50
80577;DHT22;69937;52.420;10.538;2023-06-14T14:00:22;24.50;42.40
80577;DHT22;69937;52.420;10.538;2023-06-14T14:05:23;24.20;43.00
80577;DHT22;69937;52.420;10.538;2023-06-14T14:10:29;24.00;43.20
80577;DHT22;69937;52.420;10.538;2023-06-14T14:15:29;25.10;43.00
80577;DHT22;69937;52.420;10.538;2023-06-14T14:20:31;25.60;42.40
80577;DHT22;69937;52.420;10.538;2023-06-14T14:25:31;25.60;42.20
80577;DHT22;69937;52.420;10.538;2023-06-14T14:30:32;25.50;41.40
80577;DHT22;69937;52.420;10.538;2023-06-14T14:35:33;25.30;41.70
80577;DHT22;69937;52.420;10.538;2023-06-14T14:40:33;25.20;42.10
80577;DHT22;69937;52.420;10.538;2023-06-14T14:45:34;25.00;42.20
80577;DHT22;69937;52.420;10.538;2023-06-14T14:50:34;25.10;42.70
80577;DHT22;69937;52.420;10.538;2023-06-14T14:55:35;25.00;41.80
80577;DHT22;69937;52.420;10.538;2023-06-14T15:00:37;24.70;42.30
80577;DHT22;69937;52.420;10.538;2023-06-14T15:05:38;24.50;42.60
80577;DHT22;69937;52.420;10.538;2023-06-14T15:10:41;24.50;42.30
80577;DHT22;69937;52.420;10.538;2023-06-14T15:15:43;25.00;42.40
80577;DHT22;69937;52.420;10.538;2023-06-14T15:20:43;25.90;42.20
80577;DHT22;69937;52.420;10.538;2023-06-14T15:25:44;26.50;41.00
80577;DHT22;69937;52.420;10.538;2023-06-14T15:30:44;27.10;40.10
80577;DHT22;69937;52.420;10.538;2023-06-14T15:35:45;27.30;39.80
80577;DHT22;69937;52.420;10.538;2023-06-14T15:40:45;27.10;40.20
80577;DHT22;69937;52.420;10.538;2023-06-14T15:45:46;27.40;40.00
80577;DHT22;69937;52.420;10.538;2023-06-14T15:50:46;27.90;39.60
80577;DHT22;69937;52.420;10.538;2023-06-14T15:55:47;28.00;38.50
80577;DHT22;69937;52.420;10.538;2023-06-14T16:00:47;27.80;39.70
80577;DHT22;69937;52.420;10.538;2023-06-14T16:05:48;27.20;39.40
80577;DHT22;69937;52.420;10.538;2023-06-14T16:10:48;26.00;40.30
80577;DHT22;69937;52.420;10.538;2023-06-14T16:15:49;25.40;41.80
80577;DHT22;69937;52.420;10.538;2023-06-14T16:20:50;25.00;42.30
80577;DHT22;69937;52.420;10.538;2023-06-14T16:25:50;24.50;42.60
80577;DHT22;69937;52.420;10.538;2023-06-14T16:30:51;24.40;42.50
80577;DHT22;69937;52.420;10.538;2023-06-14T16:35:51;24.20;43.20
80577;DHT22;69937;52.420;10.538;2023-06-14T16:40:52;24.00;43.40
80577;DHT22;69937;52.420;10.538;2023-06-14T16:45:53;23.90;43.20
80577;DHT22;69937;52.420;10.538;2023-06-14T16:50:53;23.80;43.20
80577;DHT22;69937;52.420;10.538;2023-06-14T16:55:54;23.80;44.00
80577;DHT22;69937;52.420;10.538;2023-06-14T17:00:54;23.90;43.90
80577;DHT22;69937;52.420;10.538;2023-06-14T17:05:56;24.00;43.60
80577;DHT22;69937;52.420;10.538;2023-06-14T17:10:57;23.90;43.30
80577;DHT22;69937;52.420;10.538;2023-06-14T17:16:00;23.80;46.10
80577;DHT22;69937;52.420;10.538;2023-06-14T17:21:01;23.60;46.40
80577;DHT22;69937;52.420;10.538;2023-06-14T17:26:02;23.40;47.40
80577;DHT22;69937;52.420;10.538;2023-06-14T17:31:03;23.40;45.90
80577;DHT22;69937;52.420;10.538;2023-06-14T17:36:04;23.50;44.40
80577;DHT22;69937;52.420;10.538;2023-06-14T17:41:05;23.60;44.30
80577;DHT22;69937;52.420;10.538;2023-06-14T17:46:13;23.70;45.00
80577;DHT22;69937;52.420;10.538;2023-06-14T17:51:14;23.90;45.50
80577;DHT22;69937;52.420;10.538;2023-06-14T17:56:15;23.90;43.70
80577;DHT22;69937;52.420;10.538;2023-06-14T18:01:16;23.80;45.50
80577;DHT22;69937;52.420;10.538;2023-06-14T18:06:20;23.80;45.00
80577;DHT22;69937;52.420;10.538;2023-06-14T18:11:20;23.60;45.30
80577;DHT22;69937;52.420;10.538;2023-06-14T18:16:22;23.30;46.90
80577;DHT22;69937;52.420;10.538;2023-06-14T18:21:22;23.20;48.10
80577;DHT22;69937;52.420;10.538;2023-06-14T18:26:24;23.00;48.50
80577;DHT22;69937;52.420;10.538;2023-06-14T18:31:27;22.90;47.80
80577;DHT22;69937;52.420;10.538;2023-06-14T18:36:27;22.80;47.00
80577;DHT22;69937;52.420;10.538;2023-06-14T18:41:28;22.70;46.50
80577;DHT22;69937;52.420;10.538;2023-06-14T18:46:28;22.70;46.30
80577;DHT22;69937;52.420;10.538;2023-06-14T18:51:29;22.70;47.10
80577;DHT22;69937;52.420;10.538;2023-06-14T18:56:29;22.70;47.30
80577;DHT22;69937;52.420;10.538;2023-06-14T19:01:30;22.60;50.10
80577;DHT22;69937;52.420;10.538;2023-06-14T19:06:31;22.30;50.70
80577;DHT22;69937;52.420;10.538;2023-06-14T19:11:31;22.00;50.50
80577;DHT22;69937;52.420;10.538;2023-06-14T19:16:32;21.70;50.50
80577;DHT22;69937;52.420;10.538;2023-06-14T19:21:32;21.50;51.00
80577;DHT22;69937;52.420;10.538;2023-06-14T19:26:33;21.40;50.80
80577;DHT22;69937;52.420;10.538;2023-06-14T19:31:33;21.10;51.10
80577;DHT22;69937;52.420;10.538;2023-06-14T19:36:34;21.00;50.90
80577;DHT22;69937;52.420;10.538;2023-06-14T19:41:34;20.80;50.90
80577;DHT22;69937;52.420;10.538;2023-06-14T19:46:35;20.50;51.60
80577;DHT22;69937;52.420;10.538;2023-06-14T19:51:36;20.30;51.90
80577;DHT22;69937;52.420;10.538;2023-06-14T19:56:37;20.10;52.40
80577;DHT22;69937;52.420;10.538;2023-06-14T20:01:37;20.00;51.60
80577;DHT22;69937;52.420;10.538;2023-06-14T20:06:38;19.80;52.10
80577;DHT22;69937;52.420;10.538;2023-06-14T20:11:39;19.50;53.20
80577;DHT22;69937;52.420;10.538;2023-06-14T20:16:40;19.30;53.00
80577;DHT22;69937;52.420;10.538;2023-06-14T20:21:40;19.10;53.70
80577;DHT22;69937;52.420;10.538;2023-06-14T20:26:41;19.00;53.30
80577;DHT22;69937;52.420;10.538;2023-06-14T20:31:41;19.00;53.50
80577;DHT22;69937;52.420;10.538;2023-06-14T20:36:42;18.80;53.30
80577;DHT22;69937;52.420;10.538;2023-06-14T20:41:42;18.80;53.60
80577;DHT22;69937;52.420;10.538;2023-06-14T20:46:43;18.60;55.00
80577;DHT22;69937;52.420;10.538;2023-06-14T20:51:44;18.40;55.10
80577;DHT22;69937;52.420;10.538;2023-06-14T20:56:45;18.40;55.30
80577;DHT22;69937;52.420;10.538;2023-06-14T21:01:45;18.20;52.50
80577;DHT22;69937;52.420;10.538;2023-06-14T21:06:47;18.30;51.90
80577;DHT22;69937;52.420;10.538;2023-06-14T21:11:47;18.30;51.60
80577;DHT22;69937;52.420;10.538;2023-06-14T21:16:48;18.30;51.30
80577;DHT22;69937;52.420;10.538;2023-06-14T21:21:49;18.30;51.20
80577;DHT22;69937;52.420;10.538;2023-06-14T21:26:50;18.40;51.50
80577;DHT22;69937;52.420;10.538;2023-06-14T21:31:50;18.30;51.60
80577;DHT22;69937;52.420;10.538;2023-06-14T21:36:51;18.20;51.60
80577;DHT22;69937;52.420;10.538;2023-06-14T21:41:52;18.20;51.50
80577;DHT22;69937;52.420;10.538;2023-06-14T21:46:54;18.10;51.70
80577;DHT22;69937;52.420;10.538;2023-06-14T21:51:55;18.00;50.30
80577;DHT22;69937;52.420;10.538;2023-06-14T21:56:55;18.00;50.30
80577;DHT22;69937;52.420;10.538;2023-06-14T22:01:56;18.00;50.00
80577;DHT22;69937;52.420;10.538;2023-06-14T22:06:56;18.00;49.70
80577;DHT22;69937;52.420;10.538;2023-06-14T22:11:57;18.00;49.70
80577;DHT22;69937;52.420;10.538;2023-06-14T22:17:01;18.00;49.70
80577;DHT22;69937;52.420;10.538;2023-06-14T22:22:03;17.90;50.00
80577;DHT22;69937;52.420;10.538;2023-06-14T22:27:04;17.80;50.30
80577;DHT22;69937;52.420;10.538;2023-06-14T22:32:05;17.70;50.50
80577;DHT22;69937;52.420;10.538;2023-06-14T22:37:06;17.60;50.90
80577;DHT22;69937;52.420;10.538;2023-06-14T22:42:08;17.50;51.60
80577;DHT22;69937;52.420;10.538;2023-06-14T22:47:13;17.20;52.30
80577;DHT22;69937;52.420;10.538;2023-06-14T22:52:21;17.00;52.90
80577;DHT22;69937;52.420;10.538;2023-06-14T22:57:27;16.80;54.00
80577;DHT22;69937;52.420;10.538;2023-06-14T23:02:29;16.60;54.10
80577;DHT22;69937;52.420;10.538;2023-06-14T23:07:30;16.40;54.10
80577;DHT22;69937;52.420;10.538;2023-06-14T23:12:31;16.40;53.90
80577;DHT22;69937;52.420;10.538;2023-06-14T23:17:33;16.20;54.40
80577;DHT22;69937;52.420;10.538;2023-06-14T23:22:35;16.00;54.00
80577;DHT22;69937;52.420;10.538;2023-06-14T23:27:36;16.00;54.20
80577;DHT22;69937;52.420;10.538;2023-06-14T23:32:37;16.00;54.00
80577;DHT22;69937;52.420;10.538;2023-06-14T23:37:39;15.80;54.20
80577;DHT22;69937;52.420;10.538;2023-06-14T23:42:41;15.70;54.70
80577;DHT22;69937;52.420;10.538;2023-06-14T23:47:42;15.60;55.30
80577;DHT22;69937;52.420;10.538;2023-06-14T23:52:42;15.40;55.30
80577;DHT22;69937;52.420;10.538;2023-06-14T23:57:43;15.10;56.10
